createdAt,value
2018-07-06T00:00:47.379Z,100838.00
2018-07-06T00:01:48.177Z,100837.91
2018-07-06T00:02:48.948Z,100838.48
2018-07-06T00:03:49.725Z,100837.85
2018-07-06T00:04:50.492Z,100838.23
2018-07-06T00:05:51.270Z,100838.13
2018-07-06T00:06:52.080Z,100837.97
2018-07-06T00:07:52.852Z,100838.62
2018-07-06T00:08:53.676Z,100838.28
2018-07-06T00:09:53.400Z,100838.69
2018-07-06T00:10:55.227Z,100839.12
2018-07-06T00:11:54.984Z,100839.32
2018-07-06T00:12:56.770Z,100839.64
2018-07-06T00:13:57.526Z,100839.80
2018-07-06T00:14:58.326Z,100840.37
2018-07-06T00:15:59.089Z,100840.66
2018-07-06T00:16:59.882Z,100840.80
2018-07-06T00:18:00.702Z,100841.30
2018-07-06T00:19:00.427Z,100841.97
2018-07-06T00:20:02.202Z,100841.97
2018-07-06T00:21:02.997Z,100842.56
2018-07-06T00:22:03.875Z,100842.98
2018-07-06T00:23:03.565Z,100843.53
2018-07-06T00:24:05.348Z,100843.95
2018-07-06T00:25:06.129Z,100843.90
2018-07-06T00:26:06.881Z,100843.95
2018-07-06T00:27:07.682Z,100844.22
2018-07-06T00:28:08.452Z,100844.91
2018-07-06T00:29:09.254Z,100845.77
2018-07-06T00:30:10.011Z,100845.82
2018-07-06T00:31:10.788Z,100845.92
2018-07-06T00:32:11.594Z,100846.52
2018-07-06T00:33:12.371Z,100846.61
2018-07-06T00:34:13.139Z,100847.10
2018-07-06T00:35:13.997Z,100847.77
2018-07-06T00:36:13.697Z,100847.79
2018-07-06T00:37:15.522Z,100847.94
2018-07-06T00:38:16.300Z,100848.19
2018-07-06T00:39:17.066Z,100848.44
2018-07-06T00:40:17.848Z,100849.17
2018-07-06T00:41:17.614Z,100850.58
2018-07-06T00:42:19.410Z,100851.34
2018-07-06T00:43:20.184Z,100851.75
2018-07-06T00:44:20.961Z,100852.30
2018-07-06T00:45:21.727Z,100852.59
2018-07-06T00:46:22.498Z,100853.51
2018-07-06T00:47:24.281Z,100854.37
2018-07-06T00:48:24.048Z,100854.47
2018-07-06T00:49:24.831Z,100854.86
2018-07-06T00:50:25.604Z,100855.23
2018-07-06T00:51:26.383Z,100855.89
2018-07-06T00:52:27.185Z,100856.31
2018-07-06T00:53:27.958Z,100856.52
2018-07-06T00:54:28.752Z,100857.49
2018-07-06T00:55:29.529Z,100857.98
2018-07-06T00:56:30.306Z,100858.48
2018-07-06T00:57:31.095Z,100859.66
2018-07-06T00:58:31.884Z,100860.67
2018-07-06T00:59:32.652Z,100861.14
2018-07-06T01:00:33.447Z,100862.03
2018-07-06T01:01:34.397Z,100862.25
2018-07-06T01:02:34.034Z,100863.03
2018-07-06T01:03:35.805Z,100863.63
2018-07-06T01:04:36.589Z,100863.95
2018-07-06T01:05:37.372Z,100864.86
2018-07-06T01:06:38.143Z,100865.49
2018-07-06T01:07:38.934Z,100866.58
2018-07-06T01:08:39.723Z,100867.63
2018-07-06T01:09:40.486Z,100868.03
2018-07-06T01:10:41.262Z,100868.94
2018-07-06T01:11:42.067Z,100869.38
2018-07-06T01:12:41.839Z,100869.30
2018-07-06T01:13:43.612Z,100870.16
2018-07-06T01:14:44.387Z,100870.84
2018-07-06T01:15:45.164Z,100871.25
2018-07-06T01:16:45.930Z,100872.13
2018-07-06T01:17:46.763Z,100872.70
2018-07-06T01:18:47.534Z,100873.48
2018-07-06T01:19:48.339Z,100874.86
2018-07-06T01:20:49.088Z,100876.05
2018-07-06T01:21:49.860Z,100877.16
2018-07-06T01:22:53.680Z,100878.22
2018-07-06T01:23:51.455Z,100878.16
2018-07-06T01:24:52.232Z,100878.56
2018-07-06T01:25:53.012Z,100879.12
2018-07-06T01:26:53.805Z,100879.69
2018-07-06T01:27:54.585Z,100880.65
2018-07-06T01:28:55.355Z,100881.31
2018-07-06T01:29:56.132Z,100882.05
2018-07-06T01:30:56.917Z,100882.87
2018-07-06T01:31:57.695Z,100883.67
2018-07-06T01:32:58.485Z,100884.28
2018-07-06T01:33:58.260Z,100884.72
2018-07-06T01:35:00.031Z,100885.70
2018-07-06T01:36:00.814Z,100886.71
2018-07-06T01:37:01.592Z,100886.94
2018-07-06T01:38:02.405Z,100887.55
2018-07-06T01:39:03.160Z,100889.09
2018-07-06T01:40:03.967Z,100889.95
2018-07-06T01:41:04.709Z,100890.56
2018-07-06T01:42:07.266Z,100891.40
2018-07-06T01:43:06.548Z,100892.23
2018-07-06T01:44:05.754Z,100893.02
2018-07-06T01:45:20.469Z,100912.27
2018-07-06T01:46:21.239Z,100905.42
2018-07-06T01:47:22.012Z,100905.25
2018-07-06T01:48:21.828Z,100905.25
2018-07-06T01:49:23.585Z,100904.91
2018-07-06T01:50:24.361Z,100904.83
2018-07-06T01:51:25.129Z,100905.22
2018-07-06T01:52:25.924Z,100904.73
2018-07-06T01:53:26.709Z,100904.55
2018-07-06T01:54:27.485Z,100904.88
2018-07-06T01:55:28.255Z,100904.91
2018-07-06T01:56:29.038Z,100905.00
2018-07-06T01:57:29.816Z,100905.27
2018-07-06T01:58:30.605Z,100905.55
2018-07-06T01:59:31.398Z,100905.98
2018-07-06T02:00:31.170Z,100906.19
2018-07-06T02:01:32.963Z,100906.72
2018-07-06T02:02:33.726Z,100907.39
2018-07-06T02:03:35.813Z,100908.02
2018-07-06T02:04:34.582Z,100907.92
2018-07-06T02:05:35.357Z,100907.50
2018-07-06T02:06:36.132Z,100907.83
2018-07-06T02:07:36.902Z,100908.49
2018-07-06T02:08:37.707Z,100908.34
2018-07-06T02:09:38.473Z,100908.41
2018-07-06T02:10:39.256Z,100909.13
2018-07-06T02:11:40.017Z,100909.28
2018-07-06T02:12:40.793Z,100909.59
2018-07-06T02:13:41.589Z,100910.06
2018-07-06T02:14:42.368Z,100910.58
2018-07-06T02:15:43.146Z,100910.91
2018-07-06T02:16:43.923Z,100911.21
2018-07-06T02:17:44.699Z,100912.14
2018-07-06T02:18:45.505Z,100912.19
2018-07-06T02:19:46.304Z,100912.63
2018-07-06T02:20:47.070Z,100912.80
2018-07-06T02:21:47.830Z,100913.58
2018-07-06T02:22:48.602Z,100914.61
2018-07-06T02:23:49.407Z,100914.71
2018-07-06T02:24:50.182Z,100915.66
2018-07-06T02:25:50.965Z,100916.62
2018-07-06T02:26:51.781Z,100917.66
2018-07-06T02:27:52.507Z,100918.41
2018-07-06T02:28:55.751Z,100919.52
2018-07-06T02:29:53.095Z,100920.84
2018-07-06T02:30:54.893Z,100922.13
2018-07-06T02:31:55.650Z,100923.52
2018-07-06T02:32:56.418Z,100924.75
2018-07-06T02:33:57.219Z,100925.59
2018-07-06T02:34:57.994Z,100926.48
2018-07-06T02:35:58.783Z,100927.50
2018-07-06T02:36:59.568Z,100927.91
2018-07-06T02:38:00.341Z,100929.00
2018-07-06T02:39:01.121Z,100929.83
2018-07-06T02:40:01.946Z,100930.88
2018-07-06T02:41:01.668Z,100931.97
2018-07-06T02:42:03.444Z,100933.36
2018-07-06T02:43:04.222Z,100933.95
2018-07-06T02:44:05.022Z,100935.17
2018-07-06T02:45:05.793Z,100935.78
2018-07-06T02:46:06.565Z,100936.86
2018-07-06T02:47:07.341Z,100937.59
2018-07-06T02:48:08.113Z,100938.23
2018-07-06T02:49:08.915Z,100939.08
2018-07-06T02:50:09.691Z,100939.52
2018-07-06T02:51:10.462Z,100940.66
2018-07-06T02:52:11.242Z,100940.89
2018-07-06T02:53:12.018Z,100941.75
2018-07-06T02:54:12.818Z,100942.05
2018-07-06T02:55:13.650Z,100943.14
2018-07-06T02:56:13.373Z,100944.07
2018-07-06T02:57:15.139Z,100944.75
2018-07-06T02:58:15.941Z,100945.93
2018-07-06T02:59:16.718Z,100946.36
2018-07-06T03:00:17.488Z,100947.09
2018-07-06T03:01:18.272Z,100947.48
2018-07-06T03:02:19.040Z,100947.88
2018-07-06T03:03:19.836Z,100949.14
2018-07-06T03:04:20.645Z,100949.73
2018-07-06T03:05:21.414Z,100950.64
2018-07-06T03:06:22.177Z,100951.42
2018-07-06T03:07:22.966Z,100951.47
2018-07-06T03:08:23.722Z,100952.33
2018-07-06T03:09:24.529Z,100952.77
2018-07-06T03:10:25.298Z,100953.89
2018-07-06T03:11:26.084Z,100954.92
2018-07-06T03:12:26.859Z,100955.71
2018-07-06T03:13:27.636Z,100956.91
2018-07-06T03:14:28.417Z,100957.94
2018-07-06T03:15:29.192Z,100958.63
2018-07-06T03:16:29.972Z,100959.47
2018-07-06T03:17:30.752Z,100960.27
2018-07-06T03:18:31.524Z,100960.59
2018-07-06T03:19:32.326Z,100961.23
2018-07-06T03:20:33.091Z,100961.45
2018-07-06T03:21:33.869Z,100962.41
2018-07-06T03:22:34.641Z,100962.14
2018-07-06T03:23:35.419Z,100962.53
2018-07-06T03:24:36.214Z,100962.59
2018-07-06T03:25:37.013Z,100963.37
2018-07-06T03:26:37.768Z,100963.48
2018-07-06T03:27:38.544Z,100964.14
2018-07-06T03:28:39.682Z,100964.50
2018-07-06T03:29:39.113Z,100964.80
2018-07-06T03:30:40.894Z,100964.89
2018-07-06T03:31:41.670Z,100965.20
2018-07-06T03:32:42.446Z,100965.70
2018-07-06T03:33:43.216Z,100966.34
2018-07-06T03:34:44.025Z,100966.92
2018-07-06T03:35:44.801Z,100967.41
2018-07-06T03:36:52.778Z,100968.63
2018-07-06T03:37:45.468Z,100969.36
2018-07-06T03:38:46.173Z,100970.63
2018-07-06T03:39:49.412Z,100971.66
2018-07-06T03:41:23.695Z,100990.08
2018-07-06T03:42:24.464Z,100991.17
2018-07-06T03:43:25.245Z,100990.46
2018-07-06T03:44:26.014Z,100990.27
2018-07-06T03:45:26.835Z,100990.36
2018-07-06T03:46:27.590Z,100991.12
2018-07-06T03:47:28.362Z,100991.51
2018-07-06T03:48:30.131Z,100991.92
2018-07-06T03:49:29.924Z,100992.34
2018-07-06T03:50:30.708Z,100993.75
2018-07-06T03:51:32.479Z,100994.90
2018-07-06T03:52:32.268Z,100995.91
2018-07-06T03:53:33.026Z,100996.50
2018-07-06T03:54:33.801Z,100997.66
2018-07-06T03:55:34.593Z,100998.42
2018-07-06T03:56:35.382Z,100999.40
2018-07-06T03:57:36.150Z,100999.74
2018-07-06T03:58:36.924Z,101000.77
2018-07-06T03:59:37.700Z,101001.19
2018-07-06T04:00:38.508Z,101002.20
2018-07-06T04:01:39.269Z,101002.72
2018-07-06T04:02:40.071Z,101003.53
2018-07-06T04:03:40.825Z,101003.95
2018-07-06T04:04:41.613Z,101005.09
2018-07-06T04:06:05.818Z,101005.77
2018-07-06T04:06:44.963Z,101006.84
2018-07-06T04:08:06.431Z,101007.69
2018-07-06T04:08:43.608Z,101008.30
2018-07-06T04:09:45.379Z,101009.56
2018-07-06T04:10:53.535Z,101010.18
2018-07-06T04:11:45.982Z,101011.75
2018-07-06T04:12:47.764Z,101012.27
2018-07-06T04:13:48.546Z,101013.27
2018-07-06T04:14:49.320Z,101014.56
2018-07-06T04:15:50.121Z,101014.62
2018-07-06T04:16:50.940Z,101015.62
2018-07-06T04:17:50.660Z,101016.13
2018-07-06T04:18:52.436Z,101016.33
2018-07-06T04:19:53.260Z,101017.20
2018-07-06T04:20:53.049Z,101017.47
2018-07-06T04:21:56.992Z,101018.21
2018-07-06T04:22:57.345Z,101019.13
2018-07-06T04:23:55.425Z,101020.22
2018-07-06T04:24:57.198Z,101020.73
2018-07-06T04:26:17.139Z,101021.69
2018-07-06T04:27:00.416Z,101022.28
2018-07-06T04:27:59.205Z,101022.56
2018-07-06T04:28:59.983Z,101023.61
2018-07-06T04:30:00.750Z,101024.51
2018-07-06T04:31:04.026Z,101025.16
2018-07-06T04:32:04.125Z,101026.42
2018-07-06T04:33:02.933Z,101026.61
2018-07-06T04:34:02.772Z,101027.03
2018-07-06T04:35:05.676Z,101027.48
2018-07-06T04:36:06.582Z,101028.17
2018-07-06T04:37:05.066Z,101028.74
2018-07-06T04:38:09.362Z,101029.31
2018-07-06T04:39:06.675Z,101029.74
2018-07-06T04:40:07.441Z,101030.83
2018-07-06T04:41:09.253Z,101031.45
2018-07-06T04:42:10.043Z,101032.48
2018-07-06T04:43:10.804Z,101032.93
2018-07-06T04:44:14.043Z,101033.20
2018-07-06T04:45:11.359Z,101034.20
2018-07-06T04:46:13.162Z,101034.69
2018-07-06T04:47:13.982Z,101035.64
2018-07-06T04:48:13.726Z,101036.48
2018-07-06T04:49:15.492Z,101036.95
2018-07-06T04:50:16.295Z,101038.02
2018-07-06T04:51:16.065Z,101038.39
2018-07-06T04:52:17.832Z,101039.11
2018-07-06T04:53:18.640Z,101039.83
2018-07-06T04:54:19.411Z,101040.75
2018-07-06T04:55:20.179Z,101041.27
2018-07-06T04:56:20.981Z,101041.80
2018-07-06T04:57:21.780Z,101042.28
2018-07-06T04:58:22.549Z,101042.64
2018-07-06T04:59:23.325Z,101043.50
2018-07-06T05:00:24.088Z,101043.92
2018-07-06T05:01:24.953Z,101044.70
2018-07-06T05:02:27.090Z,101045.62
2018-07-06T05:03:25.523Z,101046.53
2018-07-06T05:04:26.258Z,101047.37
2018-07-06T05:05:30.808Z,101048.13
2018-07-06T05:06:28.662Z,101049.11
2018-07-06T05:07:37.023Z,101050.09
2018-07-06T05:08:29.255Z,101051.45
2018-07-06T05:09:31.043Z,101051.89
2018-07-06T05:10:31.855Z,101052.23
2018-07-06T05:11:31.627Z,101053.59
2018-07-06T05:12:33.397Z,101054.73
2018-07-06T05:13:34.188Z,101055.80
2018-07-06T05:14:34.942Z,101056.81
2018-07-06T05:15:35.734Z,101057.37
2018-07-06T05:16:36.529Z,101058.13
2018-07-06T05:17:36.306Z,101059.33
2018-07-06T05:18:38.077Z,101059.99
2018-07-06T05:19:38.842Z,101060.39
2018-07-06T05:20:39.620Z,101061.08
2018-07-06T05:21:40.414Z,101061.81
2018-07-06T05:22:41.292Z,101062.05
2018-07-06T05:23:40.958Z,101062.67
2018-07-06T05:24:42.732Z,101062.78
2018-07-06T05:25:43.507Z,101063.71
2018-07-06T05:26:44.308Z,101064.23
2018-07-06T05:27:45.082Z,101064.25
2018-07-06T05:28:45.870Z,101064.86
2018-07-06T05:29:46.637Z,101065.55
2018-07-06T05:30:47.413Z,101065.55
2018-07-06T05:31:48.260Z,101066.56
2018-07-06T05:32:48.006Z,101067.09
2018-07-06T05:33:49.794Z,101067.72
2018-07-06T05:34:50.551Z,101068.58
2018-07-06T05:35:51.330Z,101068.91
2018-07-06T05:36:52.124Z,101069.84
2018-07-06T05:37:52.994Z,101070.51
2018-07-06T05:38:52.693Z,101071.88
2018-07-06T05:39:54.456Z,101072.39
2018-07-06T05:40:55.244Z,101072.59
2018-07-06T05:41:56.045Z,101073.41
2018-07-06T05:42:55.825Z,101074.37
2018-07-06T05:44:00.121Z,101075.37
2018-07-06T05:44:57.414Z,101076.28
2018-07-06T05:45:58.157Z,101077.56
2018-07-06T05:47:02.756Z,101078.81
2018-07-06T05:48:00.606Z,101080.32
2018-07-06T05:49:00.310Z,101081.45
2018-07-06T05:50:02.088Z,101082.94
2018-07-06T05:51:02.872Z,101084.33
2018-07-06T05:52:03.671Z,101085.94
2018-07-06T05:53:04.437Z,101087.09
2018-07-06T05:54:05.235Z,101088.56
2018-07-06T05:55:06.036Z,101089.66
2018-07-06T05:56:05.764Z,101090.73
2018-07-06T05:57:07.999Z,101092.00
2018-07-06T05:59:15.855Z,101112.39
2018-07-06T06:00:16.614Z,101109.13
2018-07-06T06:01:17.383Z,101109.39
2018-07-06T06:02:18.193Z,101109.47
2018-07-06T06:03:19.958Z,101109.50
2018-07-06T06:04:20.744Z,101109.81
2018-07-06T06:05:21.516Z,101110.27
2018-07-06T06:06:22.282Z,101110.89
2018-07-06T06:07:23.078Z,101111.46
2018-07-06T06:08:23.880Z,101111.61
2018-07-06T06:09:24.618Z,101111.94
2018-07-06T06:10:25.406Z,101112.66
2018-07-06T06:11:26.190Z,101113.65
2018-07-06T06:12:26.993Z,101114.25
2018-07-06T06:13:27.744Z,101115.23
2018-07-06T06:14:28.525Z,101116.17
2018-07-06T06:15:29.319Z,101117.14
2018-07-06T06:16:29.092Z,101117.61
2018-07-06T06:17:30.909Z,101118.61
2018-07-06T06:18:34.732Z,101119.39
2018-07-06T06:19:33.698Z,101120.80
2018-07-06T06:20:32.238Z,101121.61
2018-07-06T06:21:34.007Z,101122.05
2018-07-06T06:22:34.818Z,101122.59
2018-07-06T06:23:35.604Z,101123.72
2018-07-06T06:24:36.358Z,101124.31
2018-07-06T06:25:37.145Z,101124.60
2018-07-06T06:26:37.911Z,101125.19
2018-07-06T06:27:38.739Z,101125.04
2018-07-06T06:28:39.491Z,101125.48
2018-07-06T06:29:40.267Z,101126.24
2018-07-06T06:30:41.034Z,101126.86
2018-07-06T06:31:41.815Z,101127.39
2018-07-06T06:32:42.601Z,101128.11
2018-07-06T06:33:43.494Z,101128.94
2018-07-06T06:34:43.154Z,101129.60
2018-07-06T06:35:44.924Z,101130.06
2018-07-06T06:36:45.693Z,101130.26
2018-07-06T06:37:46.494Z,101130.62
2018-07-06T06:38:47.269Z,101131.05
2018-07-06T06:39:48.048Z,101131.28
2018-07-06T06:40:48.820Z,101132.12
2018-07-06T06:41:49.594Z,101133.05
2018-07-06T06:42:50.401Z,101133.27
2018-07-06T06:43:51.171Z,101133.88
2018-07-06T06:44:52.121Z,101134.75
2018-07-06T06:45:51.734Z,101135.22
2018-07-06T06:46:53.513Z,101135.22
2018-07-06T06:47:54.314Z,101135.48
2018-07-06T06:48:55.078Z,101136.39
2018-07-06T06:49:55.867Z,101136.60
2018-07-06T06:50:56.638Z,101137.80
2018-07-06T06:51:57.419Z,101138.72
2018-07-06T06:52:58.230Z,101139.16
2018-07-06T06:53:58.981Z,101139.48
2018-07-06T06:54:59.748Z,101139.97
2018-07-06T06:56:00.526Z,101140.72
2018-07-06T06:57:01.304Z,101141.20
2018-07-06T06:58:02.099Z,101141.92
2018-07-06T06:59:02.940Z,101141.96
2018-07-06T07:00:02.665Z,101142.63
2018-07-06T07:01:04.514Z,101143.55
2018-07-06T07:02:04.214Z,101144.02
2018-07-06T07:03:06.023Z,101144.61
2018-07-06T07:04:06.813Z,101145.11
2018-07-06T07:05:07.559Z,101145.73
2018-07-06T07:06:08.393Z,101146.11
2018-07-06T07:07:08.113Z,101146.38
2018-07-06T07:08:09.914Z,101146.80
2018-07-06T07:10:26.601Z,101147.62
2018-07-06T07:10:31.122Z,101148.66
2018-07-06T07:11:16.246Z,101148.58
2018-07-06T07:12:14.327Z,101149.39
2018-07-06T07:13:14.929Z,101149.86
2018-07-06T07:14:16.827Z,101151.00
2018-07-06T07:15:21.685Z,101151.28
2018-07-06T07:16:21.503Z,101152.23
2018-07-06T07:17:15.099Z,101154.05
2018-07-06T07:18:21.065Z,101154.25
2018-07-06T07:19:16.427Z,101155.37
2018-07-06T07:20:18.196Z,101156.33
2018-07-06T07:21:19.047Z,101157.28
2018-07-06T07:22:18.786Z,101158.34
2018-07-06T07:23:20.582Z,101158.55
2018-07-06T07:24:21.355Z,101158.80
2018-07-06T07:25:22.128Z,101159.59
2018-07-06T07:26:22.919Z,101160.34
2018-07-06T07:27:23.678Z,101160.75
2018-07-06T07:28:24.491Z,101161.22
2018-07-06T07:29:46.227Z,101161.34
2018-07-06T07:30:25.048Z,101162.44
2018-07-06T07:31:26.844Z,101163.17
2018-07-06T07:32:27.605Z,101164.07
2018-07-06T07:33:30.806Z,101164.26
2018-07-06T07:34:28.233Z,101164.73
2018-07-06T07:35:28.961Z,101165.39
2018-07-06T07:36:30.779Z,101166.09
2018-07-06T07:37:30.517Z,101165.85
2018-07-06T07:38:32.301Z,101166.39
2018-07-06T07:39:33.076Z,101166.54
2018-07-06T07:40:33.852Z,101167.30
2018-07-06T07:41:34.620Z,101167.91
2018-07-06T07:42:35.407Z,101168.27
2018-07-06T07:43:36.205Z,101169.03
2018-07-06T07:44:36.977Z,101169.13
2018-07-06T07:45:37.760Z,101169.59
2018-07-06T07:46:38.597Z,101170.19
2018-07-06T07:47:38.355Z,101170.83
2018-07-06T07:48:40.198Z,101171.52
2018-07-06T07:49:40.972Z,101172.02
2018-07-06T07:50:41.750Z,101172.45
2018-07-06T07:51:42.521Z,101173.22
2018-07-06T07:52:43.305Z,101174.17
2018-07-06T07:53:44.100Z,101174.34
2018-07-06T07:54:44.869Z,101173.98
2018-07-06T07:55:45.647Z,101174.41
2018-07-06T07:56:46.414Z,101174.27
2018-07-06T07:57:47.186Z,101174.94
2018-07-06T07:58:48.026Z,101174.95
2018-07-06T07:59:47.758Z,101174.56
2018-07-06T08:00:49.649Z,101174.58
2018-07-06T08:01:49.305Z,101175.14
2018-07-06T08:02:51.076Z,101175.92
2018-07-06T08:03:51.875Z,101176.94
2018-07-06T08:04:52.647Z,101177.27
2018-07-06T08:05:56.186Z,101177.56
2018-07-06T08:06:56.131Z,101178.02
2018-07-06T08:07:53.771Z,101178.17
2018-07-06T08:08:54.540Z,101178.54
2018-07-06T08:09:56.410Z,101178.51
2018-07-06T08:10:56.571Z,101178.94
2018-07-06T08:11:57.793Z,101179.57
2018-07-06T08:12:58.740Z,101180.03
2018-07-06T08:13:57.978Z,101180.55
2018-07-06T08:14:58.707Z,101180.75
2018-07-06T08:28:51.607Z,101206.64
2018-07-06T08:29:52.375Z,101198.94
2018-07-06T08:30:53.177Z,101198.73
2018-07-06T08:31:53.969Z,101199.23
2018-07-06T08:32:54.722Z,101200.16
2018-07-06T08:33:55.493Z,101200.61
2018-07-06T08:34:56.266Z,101201.01
2018-07-06T08:35:57.068Z,101201.52
2018-07-06T08:36:57.845Z,101202.28
2018-07-06T08:37:58.630Z,101202.80
2018-07-06T08:38:59.381Z,101203.06
2018-07-06T08:40:00.160Z,101203.41
2018-07-06T08:41:00.979Z,101203.92
2018-07-06T08:42:01.747Z,101204.58
2018-07-06T08:43:02.525Z,101204.72
2018-07-06T08:44:03.288Z,101205.61
2018-07-06T08:45:04.061Z,101206.91
2018-07-06T08:46:04.865Z,101207.38
2018-07-06T08:47:05.640Z,101208.34
2018-07-06T08:48:06.463Z,101208.88
2018-07-06T08:49:06.222Z,101209.42
2018-07-06T08:50:10.701Z,101209.84
2018-07-06T08:51:07.448Z,101210.82
2018-07-06T08:52:09.236Z,101211.38
2018-07-06T08:53:10.007Z,101211.30
2018-07-06T08:54:09.777Z,101211.91
2018-07-06T08:55:11.555Z,101212.50
2018-07-06T08:56:12.347Z,101212.73
2018-07-06T08:57:13.119Z,101213.41
2018-07-06T08:58:13.891Z,101213.66
2018-07-06T08:59:14.668Z,101213.55
2018-07-06T09:00:15.449Z,101214.31
2018-07-06T09:01:16.234Z,101214.85
2018-07-06T09:02:17.016Z,101215.59
2018-07-06T09:03:17.789Z,101216.08
2018-07-06T09:04:18.658Z,101216.84
2018-07-06T09:05:18.342Z,101218.05
2018-07-06T09:06:20.138Z,101219.02
2018-07-06T09:07:20.920Z,101219.00
2018-07-06T09:08:21.691Z,101220.30
2018-07-06T09:09:22.490Z,101221.33
2018-07-06T09:10:22.242Z,101222.23
2018-07-06T09:11:24.058Z,101222.35
2018-07-06T09:12:24.819Z,101222.63
2018-07-06T09:13:25.607Z,101223.39
2018-07-06T09:14:26.387Z,101224.03
2018-07-06T09:15:27.143Z,101224.34
2018-07-06T09:16:27.952Z,101224.13
2018-07-06T09:17:27.718Z,101224.02
2018-07-06T09:18:29.489Z,101223.84
2018-07-06T09:19:30.363Z,101223.80
2018-07-06T09:20:30.092Z,101223.98
2018-07-06T09:21:30.848Z,101224.45
2018-07-06T09:22:32.615Z,101224.91
2018-07-06T09:23:33.498Z,101225.08
2018-07-06T09:24:33.184Z,101225.61
2018-07-06T09:25:35.068Z,101226.41
2018-07-06T09:26:34.741Z,101226.95
2018-07-06T09:27:36.521Z,101227.77
2018-07-06T09:28:37.287Z,101228.36
2018-07-06T09:29:38.065Z,101228.66
2018-07-06T09:30:38.835Z,101228.62
2018-07-06T09:31:39.652Z,101228.27
2018-07-06T09:32:40.419Z,101228.88
2018-07-06T09:33:41.213Z,101228.89
2018-07-06T09:34:41.972Z,101229.33
2018-07-06T09:35:42.738Z,101229.20
2018-07-06T09:36:43.541Z,101229.41
2018-07-06T09:37:44.313Z,101229.76
2018-07-06T09:38:45.093Z,101230.30
2018-07-06T09:39:45.867Z,101231.16
2018-07-06T09:40:46.637Z,101232.09
2018-07-06T09:41:47.437Z,101232.38
2018-07-06T09:42:48.222Z,101232.55
2018-07-06T09:43:48.986Z,101233.01
2018-07-06T09:44:49.762Z,101233.58
2018-07-06T09:45:50.535Z,101234.22
2018-07-06T09:46:51.358Z,101234.88
2018-07-06T09:47:52.128Z,101236.14
2018-07-06T09:48:52.914Z,101236.02
2018-07-06T09:49:53.669Z,101236.13
2018-07-06T09:50:54.478Z,101236.80
2018-07-06T09:51:54.243Z,101237.46
2018-07-06T09:52:56.020Z,101237.77
2018-07-06T09:53:56.797Z,101238.43
2018-07-06T09:54:57.567Z,101238.66
2018-07-06T09:55:58.339Z,101239.11
2018-07-06T09:56:59.135Z,101238.75
2018-07-06T09:57:59.956Z,101238.78
2018-07-06T09:58:59.680Z,101239.16
2018-07-06T10:00:01.463Z,101238.70
2018-07-06T10:01:02.235Z,101238.84
2018-07-06T10:02:03.049Z,101238.91
2018-07-06T10:03:06.250Z,101239.91
2018-07-06T10:04:03.605Z,101240.08
2018-07-06T10:05:05.377Z,101241.34
2018-07-06T10:06:06.147Z,101241.87
2018-07-06T10:07:06.986Z,101242.54
2018-07-06T10:08:06.721Z,101243.17
2018-07-06T10:09:08.492Z,101243.63
2018-07-06T10:10:08.308Z,101243.59
2018-07-06T10:11:09.043Z,101243.02
2018-07-06T10:12:10.843Z,101242.25
2018-07-06T10:13:11.648Z,101242.05
2018-07-06T10:14:12.389Z,101241.73
2018-07-06T10:15:13.219Z,101241.53
2018-07-06T10:16:12.976Z,101241.98
2018-07-06T10:17:19.748Z,101242.89
2018-07-06T10:18:14.651Z,101242.97
2018-07-06T10:19:16.419Z,101243.45
2018-07-06T10:20:17.187Z,101243.49
2018-07-06T10:21:18.367Z,101243.28
2018-07-06T10:22:18.202Z,101243.73
2018-07-06T10:23:17.939Z,101243.80
2018-07-06T10:24:19.939Z,101243.94
2018-07-06T10:25:22.330Z,101243.87
2018-07-06T10:26:20.453Z,101243.98
2018-07-06T10:27:22.257Z,101243.91
2018-07-06T10:28:24.305Z,101243.52
2018-07-06T10:29:22.787Z,101243.16
2018-07-06T10:30:24.613Z,101242.85
2018-07-06T10:31:25.373Z,101242.64
2018-07-06T10:32:26.187Z,101242.39
2018-07-06T10:33:26.969Z,101241.84
2018-07-06T10:34:27.733Z,101242.00
2018-07-06T10:35:30.689Z,101242.28
2018-07-06T10:36:30.481Z,101241.72
2018-07-06T10:37:29.139Z,101241.58
2018-07-06T10:38:31.487Z,101241.23
2018-07-06T10:41:26.805Z,101244.93
2018-07-06T10:42:27.625Z,101248.06
2018-07-06T10:43:28.469Z,101247.65
2018-07-06T10:44:29.248Z,101247.09
2018-07-06T10:45:38.247Z,101246.91
2018-07-06T10:47:05.909Z,101252.17
2018-07-06T10:48:07.106Z,101258.23
2018-07-06T10:49:04.499Z,101256.92
2018-07-06T10:50:06.305Z,101256.05
2018-07-06T10:51:09.103Z,101254.97
2018-07-06T10:52:06.849Z,101253.97
2018-07-06T10:53:11.684Z,101253.20
2018-07-06T10:54:08.520Z,101252.83
2018-07-06T10:55:16.798Z,101251.62
2018-07-06T10:56:10.068Z,101250.93
2018-07-06T10:57:10.790Z,101250.59
2018-07-06T10:58:21.443Z,101249.27
2018-07-06T10:59:13.245Z,101249.07
2018-07-06T11:00:14.017Z,101248.62
2018-07-06T11:01:41.686Z,101248.59
2018-07-06T11:02:17.449Z,101248.94
2018-07-06T11:03:22.509Z,101248.80
2018-07-06T11:04:18.184Z,101249.12
2018-07-06T11:05:16.782Z,101248.84
2018-07-06T11:06:27.653Z,101248.95
2018-07-06T11:07:25.574Z,101248.81
2018-07-06T11:08:21.904Z,101247.77
2018-07-06T11:09:19.708Z,101247.22
2018-07-06T11:10:28.944Z,101246.52
2018-07-06T11:11:34.531Z,101246.66
2018-07-06T11:12:22.095Z,101246.73
2018-07-06T11:13:59.089Z,101243.94
2018-07-06T11:15:03.151Z,101247.56
2018-07-06T11:15:55.654Z,101246.80
2018-07-06T11:17:18.977Z,101246.49
2018-07-06T11:17:57.247Z,101246.38
2018-07-06T11:18:59.073Z,101246.56
2018-07-06T11:19:58.874Z,101245.44
2018-07-06T11:20:59.610Z,101245.38
2018-07-06T11:22:04.202Z,101244.81
2018-07-06T11:23:01.980Z,101244.85
2018-07-06T11:24:05.259Z,101244.43
2018-07-06T11:25:02.627Z,101243.91
2018-07-06T11:26:03.354Z,101243.28
2018-07-06T11:27:10.318Z,101241.64
2018-07-06T11:28:13.105Z,101241.33
2018-07-06T11:29:05.709Z,101240.32
2018-07-06T11:30:08.032Z,101239.79
2018-07-06T11:31:10.033Z,101239.02
2018-07-06T11:32:15.059Z,101238.43
2018-07-06T11:33:08.424Z,101237.63
2018-07-06T11:34:10.234Z,101237.77
2018-07-06T11:35:46.382Z,101240.20
2018-07-06T11:36:59.397Z,101236.58
2018-07-06T11:37:39.269Z,101236.89
2018-07-06T11:38:41.108Z,101236.64
2018-07-06T11:39:40.833Z,101236.81
2018-07-06T11:40:42.671Z,101237.13
2018-07-06T11:41:42.448Z,101236.67
2018-07-06T11:42:43.188Z,101236.98
2018-07-06T11:43:45.025Z,101236.77
2018-07-06T11:44:44.777Z,101237.16
2018-07-06T11:45:46.570Z,101236.63
2018-07-06T11:46:53.350Z,101236.73
2018-07-06T11:47:48.109Z,101236.73
2018-07-06T11:48:48.911Z,101236.91
2018-07-06T11:49:49.697Z,101236.39
2018-07-06T11:50:52.932Z,101236.45
2018-07-06T11:51:50.335Z,101236.53